sensor_id;sensor_type;location;lat;lon;timestamp;temperature;humidity
25214;DHT22;13160;51.834;4.706;2023-02-26T00:01:46;2.50;99.90
25214;DHT22;13160;51.834;4.706;2023-02-26T00:04:16;2.50;99.90
25214;DHT22;13160;51.834;4.706;2023-02-26T00:06:44;2.40;99.90
25214;DHT22;13160;51.834;4.706;2023-02-26T00:09:24;2.40;99.90
25214;DHT22;13160;51.834;4.706;2023-02-26T00:11:54;2.40;99.90
25214;DHT22;13160;51.834;4.706;2023-02-26T00:14:23;2.40;99.90
25214;DHT22;13160;51.834;4.706;2023-02-26T00:17:05;2.30;99.90
25214;DHT22;13160;51.834;4.706;2023-02-26T00:19:45;2.30;99.90
25214;DHT22;13160;51.834;4.706;2023-02-26T00:22:14;2.30;99.90
25214;DHT22;13160;51.834;4.706;2023-02-26T00:24:47;2.30;99.90
25214;DHT22;13160;51.834;4.706;2023-02-26T00:27:17;2.30;99.90
25214;DHT22;13160;51.834;4.706;2023-02-26T00:29:46;2.20;99.90
25214;DHT22;13160;51.834;4.706;2023-02-26T00:32:18;2.20;99.90
25214;DHT22;13160;51.834;4.706;2023-02-26T00:34:47;2.20;99.90
25214;DHT22;13160;51.834;4.706;2023-02-26T00:37:26;2.20;99.90
25214;DHT22;13160;51.834;4.706;2023-02-26T00:42:50;2.20;99.90
25214;DHT22;13160;51.834;4.706;2023-02-26T00:45:19;2.10;99.90
25214;DHT22;13160;51.834;4.706;2023-02-26T00:47:50;2.10;99.90
25214;DHT22;13160;51.834;4.706;2023-02-26T00:50:25;2.10;99.90
25214;DHT22;13160;51.834;4.706;2023-02-26T00:53:02;2.10;99.90
25214;DHT22;13160;51.834;4.706;2023-02-26T00:55:35;2.10;99.90
25214;DHT22;13160;51.834;4.706;2023-02-26T00:58:08;2.10;99.90
25214;DHT22;13160;51.834;4.706;2023-02-26T01:00:36;2.10;99.90
25214;DHT22;13160;51.834;4.706;2023-02-26T01:03:05;2.10;99.90
25214;DHT22;13160;51.834;4.706;2023-02-26T01:05:34;2.20;99.90
25214;DHT22;13160;51.834;4.706;2023-02-26T01:08:12;2.10;99.90
25214;DHT22;13160;51.834;4.706;2023-02-26T01:10:42;2.20;99.90
25214;DHT22;13160;51.834;4.706;2023-02-26T01:13:13;2.20;99.90
25214;DHT22;13160;51.834;4.706;2023-02-26T01:15:46;2.20;99.90
25214;DHT22;13160;51.834;4.706;2023-02-26T01:18:19;2.30;99.90
25214;DHT22;13160;51.834;4.706;2023-02-26T01:20:56;2.30;99.90
25214;DHT22;13160;51.834;4.706;2023-02-26T01:23:26;2.30;99.90
25214;DHT22;13160;51.834;4.706;2023-02-26T01:25:59;2.40;99.90
25214;DHT22;13160;51.834;4.706;2023-02-26T01:28:34;2.40;99.90
25214;DHT22;13160;51.834;4.706;2023-02-26T01:31:04;2.40;99.90
25214;DHT22;13160;51.834;4.706;2023-02-26T01:33:39;2.50;99.90
25214;DHT22;13160;51.834;4.706;2023-02-26T01:36:11;2.50;99.90
25214;DHT22;13160;51.834;4.706;2023-02-26T01:38:46;2.50;99.90
25214;DHT22;13160;51.834;4.706;2023-02-26T01:41:27;2.50;99.90
25214;DHT22;13160;51.834;4.706;2023-02-26T01:44:07;2.50;99.90
25214;DHT22;13160;51.834;4.706;2023-02-26T01:47:01;2.50;99.90
25214;DHT22;13160;51.834;4.706;2023-02-26T01:49:32;2.50;99.90
25214;DHT22;13160;51.834;4.706;2023-02-26T01:52:02;2.50;99.90
25214;DHT22;13160;51.834;4.706;2023-02-26T01:54:35;2.50;99.90
25214;DHT22;13160;51.834;4.706;2023-02-26T01:57:07;2.50;99.90
25214;DHT22;13160;51.834;4.706;2023-02-26T01:59:41;2.50;99.90
25214;DHT22;13160;51.834;4.706;2023-02-26T02:02:13;2.50;99.90
25214;DHT22;13160;51.834;4.706;2023-02-26T02:04:47;2.50;99.90
25214;DHT22;13160;51.834;4.706;2023-02-26T02:07:17;2.50;99.90
25214;DHT22;13160;51.834;4.706;2023-02-26T02:09:46;2.40;99.90
25214;DHT22;13160;51.834;4.706;2023-02-26T02:12:23;2.40;99.90
25214;DHT22;13160;51.834;4.706;2023-02-26T02:15:06;2.40;99.90
25214;DHT22;13160;51.834;4.706;2023-02-26T02:17:43;2.30;99.90
25214;DHT22;13160;51.834;4.706;2023-02-26T02:20:42;2.30;99.90
25214;DHT22;13160;51.834;4.706;2023-02-26T02:23:22;2.30;99.90
25214;DHT22;13160;51.834;4.706;2023-02-26T02:32:28;2.20;99.90
25214;DHT22;13160;51.834;4.706;2023-02-26T02:35:03;2.20;99.90
25214;DHT22;13160;51.834;4.706;2023-02-26T02:37:38;2.20;99.90
25214;DHT22;13160;51.834;4.706;2023-02-26T02:40:13;2.10;99.90
25214;DHT22;13160;51.834;4.706;2023-02-26T02:42:50;2.10;99.90
25214;DHT22;13160;51.834;4.706;2023-02-26T02:45:25;2.10;99.90
25214;DHT22;13160;51.834;4.706;2023-02-26T02:48:01;2.10;99.90
25214;DHT22;13160;51.834;4.706;2023-02-26T02:50:35;2.10;99.90
25214;DHT22;13160;51.834;4.706;2023-02-26T02:53:10;2.10;99.90
25214;DHT22;13160;51.834;4.706;2023-02-26T02:55:47;2.00;99.90
25214;DHT22;13160;51.834;4.706;2023-02-26T02:58:23;2.00;99.90
25214;DHT22;13160;51.834;4.706;2023-02-26T03:00:56;2.00;99.90
25214;DHT22;13160;51.834;4.706;2023-02-26T03:03:33;2.00;99.90
25214;DHT22;13160;51.834;4.706;2023-02-26T03:06:04;1.90;99.90
25214;DHT22;13160;51.834;4.706;2023-02-26T03:08:36;1.90;99.90
25214;DHT22;13160;51.834;4.706;2023-02-26T03:11:07;1.90;99.90
25214;DHT22;13160;51.834;4.706;2023-02-26T03:13:37;1.80;99.90
25214;DHT22;13160;51.834;4.706;2023-02-26T03:16:20;1.80;99.90
25214;DHT22;13160;51.834;4.706;2023-02-26T03:19:03;1.80;99.90
25214;DHT22;13160;51.834;4.706;2023-02-26T03:21:44;1.70;99.90
25214;DHT22;13160;51.834;4.706;2023-02-26T03:24:21;1.70;99.90
25214;DHT22;13160;51.834;4.706;2023-02-26T03:26:55;1.70;99.90
25214;DHT22;13160;51.834;4.706;2023-02-26T03:29:33;1.70;99.90
25214;DHT22;13160;51.834;4.706;2023-02-26T03:32:09;1.60;99.90
25214;DHT22;13160;51.834;4.706;2023-02-26T03:34:46;1.60;99.90
25214;DHT22;13160;51.834;4.706;2023-02-26T03:37:29;1.60;99.90
25214;DHT22;13160;51.834;4.706;2023-02-26T03:40:03;1.60;99.90
25214;DHT22;13160;51.834;4.706;2023-02-26T03:42:39;1.60;99.90
25214;DHT22;13160;51.834;4.706;2023-02-26T03:45:13;1.60;99.90
25214;DHT22;13160;51.834;4.706;2023-02-26T03:47:46;1.60;99.90
25214;DHT22;13160;51.834;4.706;2023-02-26T03:50:26;1.60;99.90
25214;DHT22;13160;51.834;4.706;2023-02-26T03:52:57;1.60;99.90
25214;DHT22;13160;51.834;4.706;2023-02-26T03:55:33;1.60;99.90
25214;DHT22;13160;51.834;4.706;2023-02-26T03:58:06;1.60;99.90
25214;DHT22;13160;51.834;4.706;2023-02-26T04:00:35;1.50;99.90
25214;DHT22;13160;51.834;4.706;2023-02-26T04:03:11;1.50;99.90
25214;DHT22;13160;51.834;4.706;2023-02-26T04:05:47;1.50;99.90
25214;DHT22;13160;51.834;4.706;2023-02-26T04:08:16;1.50;99.90
25214;DHT22;13160;51.834;4.706;2023-02-26T04:10:50;1.50;99.90
25214;DHT22;13160;51.834;4.706;2023-02-26T04:13:20;1.50;99.90
25214;DHT22;13160;51.834;4.706;2023-02-26T04:15:48;1.50;99.90
25214;DHT22;13160;51.834;4.706;2023-02-26T04:18:16;1.50;99.90
25214;DHT22;13160;51.834;4.706;2023-02-26T04:20:46;1.50;99.90
25214;DHT22;13160;51.834;4.706;2023-02-26T04:23:14;1.50;99.90
25214;DHT22;13160;51.834;4.706;2023-02-26T04:25:45;1.40;99.90
25214;DHT22;13160;51.834;4.706;2023-02-26T04:28:14;1.40;99.90
25214;DHT22;13160;51.834;4.706;2023-02-26T04:30:45;1.40;99.90
25214;DHT22;13160;51.834;4.706;2023-02-26T04:33:14;1.40;99.90
25214;DHT22;13160;51.834;4.706;2023-02-26T04:35:42;1.40;99.90
25214;DHT22;13160;51.834;4.706;2023-02-26T04:38:12;1.40;99.90
25214;DHT22;13160;51.834;4.706;2023-02-26T04:40:40;1.40;99.90
25214;DHT22;13160;51.834;4.706;2023-02-26T04:43:09;1.40;99.90
25214;DHT22;13160;51.834;4.706;2023-02-26T04:45:37;1.30;99.90
25214;DHT22;13160;51.834;4.706;2023-02-26T04:48:06;1.30;99.90
25214;DHT22;13160;51.834;4.706;2023-02-26T04:50:34;1.30;99.90
25214;DHT22;13160;51.834;4.706;2023-02-26T04:53:02;1.30;99.90
25214;DHT22;13160;51.834;4.706;2023-02-26T04:55:32;1.20;99.90
25214;DHT22;13160;51.834;4.706;2023-02-26T04:58:01;1.20;99.90
25214;DHT22;13160;51.834;4.706;2023-02-26T05:00:29;1.20;99.90
25214;DHT22;13160;51.834;4.706;2023-02-26T05:02:57;1.20;99.90
25214;DHT22;13160;51.834;4.706;2023-02-26T05:05:26;1.20;99.90
25214;DHT22;13160;51.834;4.706;2023-02-26T05:07:54;1.10;99.90
25214;DHT22;13160;51.834;4.706;2023-02-26T05:10:23;1.10;99.90
25214;DHT22;13160;51.834;4.706;2023-02-26T05:12:52;1.10;99.90
25214;DHT22;13160;51.834;4.706;2023-02-26T05:15:21;1.10;99.90
25214;DHT22;13160;51.834;4.706;2023-02-26T05:17:49;1.10;99.90
25214;DHT22;13160;51.834;4.706;2023-02-26T05:20:18;1.10;99.90
25214;DHT22;13160;51.834;4.706;2023-02-26T05:22:46;1.00;99.90
25214;DHT22;13160;51.834;4.706;2023-02-26T05:25:17;1.00;99.90
25214;DHT22;13160;51.834;4.706;2023-02-26T05:27:47;1.00;99.90
25214;DHT22;13160;51.834;4.706;2023-02-26T05:30:20;1.00;99.90
25214;DHT22;13160;51.834;4.706;2023-02-26T05:32:49;1.00;99.90
25214;DHT22;13160;51.834;4.706;2023-02-26T05:35:17;1.00;99.90
25214;DHT22;13160;51.834;4.706;2023-02-26T05:37:46;0.90;99.90
25214;DHT22;13160;51.834;4.706;2023-02-26T05:40:14;0.90;99.90
25214;DHT22;13160;51.834;4.706;2023-02-26T05:42:43;0.90;99.90
25214;DHT22;13160;51.834;4.706;2023-02-26T05:45:11;0.80;99.90
25214;DHT22;13160;51.834;4.706;2023-02-26T05:47:41;0.80;99.90
25214;DHT22;13160;51.834;4.706;2023-02-26T05:50:10;0.80;99.90
25214;DHT22;13160;51.834;4.706;2023-02-26T05:52:39;0.80;99.90
25214;DHT22;13160;51.834;4.706;2023-02-26T05:55:08;0.80;99.90
25214;DHT22;13160;51.834;4.706;2023-02-26T05:57:37;0.80;99.90
25214;DHT22;13160;51.834;4.706;2023-02-26T06:00:07;0.70;99.90
25214;DHT22;13160;51.834;4.706;2023-02-26T06:02:36;0.70;99.90
25214;DHT22;13160;51.834;4.706;2023-02-26T06:05:07;0.70;99.90
25214;DHT22;13160;51.834;4.706;2023-02-26T06:07:36;0.70;99.90
25214;DHT22;13160;51.834;4.706;2023-02-26T06:10:05;0.70;99.90
25214;DHT22;13160;51.834;4.706;2023-02-26T06:12:35;0.60;99.90
25214;DHT22;13160;51.834;4.706;2023-02-26T06:15:06;0.60;99.90
25214;DHT22;13160;51.834;4.706;2023-02-26T06:17:35;0.60;99.90
25214;DHT22;13160;51.834;4.706;2023-02-26T06:20:09;0.60;99.90
25214;DHT22;13160;51.834;4.706;2023-02-26T06:22:38;0.50;99.90
25214;DHT22;13160;51.834;4.706;2023-02-26T06:25:07;0.50;99.90
25214;DHT22;13160;51.834;4.706;2023-02-26T06:27:36;0.50;99.90
25214;DHT22;13160;51.834;4.706;2023-02-26T06:30:06;0.50;99.90
25214;DHT22;13160;51.834;4.706;2023-02-26T06:32:38;0.50;99.90
25214;DHT22;13160;51.834;4.706;2023-02-26T06:35:08;0.50;99.90
25214;DHT22;13160;51.834;4.706;2023-02-26T06:37:37;0.40;99.90
25214;DHT22;13160;51.834;4.706;2023-02-26T06:40:07;0.40;99.90
25214;DHT22;13160;51.834;4.706;2023-02-26T06:42:37;0.40;99.90
25214;DHT22;13160;51.834;4.706;2023-02-26T06:45:06;0.40;99.90
25214;DHT22;13160;51.834;4.706;2023-02-26T06:47:35;0.40;99.90
25214;DHT22;13160;51.834;4.706;2023-02-26T06:50:10;0.40;99.90
25214;DHT22;13160;51.834;4.706;2023-02-26T06:52:44;0.40;99.90
25214;DHT22;13160;51.834;4.706;2023-02-26T06:55:16;0.40;99.90
25214;DHT22;13160;51.834;4.706;2023-02-26T06:57:44;0.40;99.90
25214;DHT22;13160;51.834;4.706;2023-02-26T07:00:13;0.40;99.90
25214;DHT22;13160;51.834;4.706;2023-02-26T07:02:44;0.40;99.90
25214;DHT22;13160;51.834;4.706;2023-02-26T07:05:14;0.40;99.90
25214;DHT22;13160;51.834;4.706;2023-02-26T07:07:45;0.30;99.90
25214;DHT22;13160;51.834;4.706;2023-02-26T07:10:13;0.40;99.90
25214;DHT22;13160;51.834;4.706;2023-02-26T07:12:42;0.40;99.90
25214;DHT22;13160;51.834;4.706;2023-02-26T07:15:10;0.40;99.90
25214;DHT22;13160;51.834;4.706;2023-02-26T07:17:38;0.40;99.90
25214;DHT22;13160;51.834;4.706;2023-02-26T07:20:08;0.40;99.90
25214;DHT22;13160;51.834;4.706;2023-02-26T07:22:39;0.40;99.90
25214;DHT22;13160;51.834;4.706;2023-02-26T07:25:09;0.40;99.90
25214;DHT22;13160;51.834;4.706;2023-02-26T07:27:38;0.40;99.90
25214;DHT22;13160;51.834;4.706;2023-02-26T07:30:10;0.40;99.90
25214;DHT22;13160;51.834;4.706;2023-02-26T07:32:39;0.40;99.90
25214;DHT22;13160;51.834;4.706;2023-02-26T07:35:08;0.40;99.90
25214;DHT22;13160;51.834;4.706;2023-02-26T07:37:37;0.40;99.90
25214;DHT22;13160;51.834;4.706;2023-02-26T07:40:07;0.50;99.90
25214;DHT22;13160;51.834;4.706;2023-02-26T07:42:36;0.50;99.90
25214;DHT22;13160;51.834;4.706;2023-02-26T07:45:07;0.50;99.90
25214;DHT22;13160;51.834;4.706;2023-02-26T07:47:36;0.50;99.90
25214;DHT22;13160;51.834;4.706;2023-02-26T07:50:05;0.60;99.90
25214;DHT22;13160;51.834;4.706;2023-02-26T07:52:34;0.60;99.90
25214;DHT22;13160;51.834;4.706;2023-02-26T07:55:04;0.60;99.90
25214;DHT22;13160;51.834;4.706;2023-02-26T07:57:33;0.70;99.90
25214;DHT22;13160;51.834;4.706;2023-02-26T08:00:02;0.70;99.90
25214;DHT22;13160;51.834;4.706;2023-02-26T08:02:33;0.70;99.90
25214;DHT22;13160;51.834;4.706;2023-02-26T08:05:02;0.80;99.90
25214;DHT22;13160;51.834;4.706;2023-02-26T08:07:30;0.80;99.90
25214;DHT22;13160;51.834;4.706;2023-02-26T08:09:59;0.90;99.90
25214;DHT22;13160;51.834;4.706;2023-02-26T08:12:29;1.00;99.90
25214;DHT22;13160;51.834;4.706;2023-02-26T08:14:58;1.00;99.90
25214;DHT22;13160;51.834;4.706;2023-02-26T08:17:27;1.10;99.90
25214;DHT22;13160;51.834;4.706;2023-02-26T08:19:55;1.10;99.90
25214;DHT22;13160;51.834;4.706;2023-02-26T08:22:23;1.20;99.90
25214;DHT22;13160;51.834;4.706;2023-02-26T08:24:52;1.20;99.90
25214;DHT22;13160;51.834;4.706;2023-02-26T08:27:21;1.30;99.90
25214;DHT22;13160;51.834;4.706;2023-02-26T08:29:51;1.40;99.90
25214;DHT22;13160;51.834;4.706;2023-02-26T08:32:19;1.50;99.90
25214;DHT22;13160;51.834;4.706;2023-02-26T08:34:48;1.60;99.90
25214;DHT22;13160;51.834;4.706;2023-02-26T08:37:17;1.60;99.90
25214;DHT22;13160;51.834;4.706;2023-02-26T08:39:48;1.70;99.90
25214;DHT22;13160;51.834;4.706;2023-02-26T08:42:16;1.80;99.90
25214;DHT22;13160;51.834;4.706;2023-02-26T08:44:46;1.90;99.90
25214;DHT22;13160;51.834;4.706;2023-02-26T08:47:16;1.90;99.90
25214;DHT22;13160;51.834;4.706;2023-02-26T08:49:54;2.00;99.90
25214;DHT22;13160;51.834;4.706;2023-02-26T08:52:23;2.10;99.90
25214;DHT22;13160;51.834;4.706;2023-02-26T08:54:51;2.20;99.90
25214;DHT22;13160;51.834;4.706;2023-02-26T08:57:19;2.30;99.90
25214;DHT22;13160;51.834;4.706;2023-02-26T08:59:48;2.40;99.90
25214;DHT22;13160;51.834;4.706;2023-02-26T09:02:19;2.50;99.90
25214;DHT22;13160;51.834;4.706;2023-02-26T09:04:49;2.50;99.90
25214;DHT22;13160;51.834;4.706;2023-02-26T09:07:18;2.60;99.90
25214;DHT22;13160;51.834;4.706;2023-02-26T09:09:46;2.70;99.90
25214;DHT22;13160;51.834;4.706;2023-02-26T09:12:14;2.80;99.90
25214;DHT22;13160;51.834;4.706;2023-02-26T09:14:43;2.80;99.90
25214;DHT22;13160;51.834;4.706;2023-02-26T09:17:11;2.90;99.90
25214;DHT22;13160;51.834;4.706;2023-02-26T09:19:41;3.00;99.90
25214;DHT22;13160;51.834;4.706;2023-02-26T09:22:10;3.00;99.90
25214;DHT22;13160;51.834;4.706;2023-02-26T09:24:38;3.10;99.90
25214;DHT22;13160;51.834;4.706;2023-02-26T09:27:07;3.20;99.90
25214;DHT22;13160;51.834;4.706;2023-02-26T09:29:35;3.20;99.90
25214;DHT22;13160;51.834;4.706;2023-02-26T09:32:03;3.30;99.90
25214;DHT22;13160;51.834;4.706;2023-02-26T09:34:34;3.40;99.90
25214;DHT22;13160;51.834;4.706;2023-02-26T09:37:08;3.50;99.90
25214;DHT22;13160;51.834;4.706;2023-02-26T09:39:36;3.50;99.90
25214;DHT22;13160;51.834;4.706;2023-02-26T09:42:08;3.60;99.90
25214;DHT22;13160;51.834;4.706;2023-02-26T09:44:39;3.60;99.90
25214;DHT22;13160;51.834;4.706;2023-02-26T09:47:14;3.70;99.90
25214;DHT22;13160;51.834;4.706;2023-02-26T09:49:49;3.70;99.90
25214;DHT22;13160;51.834;4.706;2023-02-26T09:52:26;3.80;99.90
25214;DHT22;13160;51.834;4.706;2023-02-26T09:55:00;3.90;99.90
25214;DHT22;13160;51.834;4.706;2023-02-26T09:57:33;3.90;99.90
25214;DHT22;13160;51.834;4.706;2023-02-26T10:00:13;4.00;99.90
25214;DHT22;13160;51.834;4.706;2023-02-26T10:02:54;4.00;99.90
25214;DHT22;13160;51.834;4.706;2023-02-26T10:05:32;4.10;99.90
25214;DHT22;13160;51.834;4.706;2023-02-26T10:08:12;4.20;99.90
25214;DHT22;13160;51.834;4.706;2023-02-26T10:10:48;4.20;99.50
25214;DHT22;13160;51.834;4.706;2023-02-26T10:13:22;4.20;99.90
25214;DHT22;13160;51.834;4.706;2023-02-26T10:16:00;4.30;99.90
25214;DHT22;13160;51.834;4.706;2023-02-26T10:18:35;4.40;99.30
25214;DHT22;13160;51.834;4.706;2023-02-26T10:21:10;4.40;99.20
25214;DHT22;13160;51.834;4.706;2023-02-26T10:23:48;4.50;99.10
25214;DHT22;13160;51.834;4.706;2023-02-26T10:26:20;4.60;99.10
25214;DHT22;13160;51.834;4.706;2023-02-26T10:28:58;4.60;98.80
25214;DHT22;13160;51.834;4.706;2023-02-26T10:31:34;4.70;98.80
25214;DHT22;13160;51.834;4.706;2023-02-26T10:34:14;4.80;98.50
25214;DHT22;13160;51.834;4.706;2023-02-26T10:36:47;4.80;97.80
25214;DHT22;13160;51.834;4.706;2023-02-26T10:39:28;4.90;97.90
25214;DHT22;13160;51.834;4.706;2023-02-26T10:42:03;4.90;97.20
25214;DHT22;13160;51.834;4.706;2023-02-26T10:44:48;5.00;97.10
25214;DHT22;13160;51.834;4.706;2023-02-26T10:47:28;5.00;96.50
25214;DHT22;13160;51.834;4.706;2023-02-26T10:50:03;5.10;96.30
25214;DHT22;13160;51.834;4.706;2023-02-26T10:52:34;5.10;96.10
25214;DHT22;13160;51.834;4.706;2023-02-26T10:55:17;5.20;96.20
25214;DHT22;13160;51.834;4.706;2023-02-26T10:58:08;5.30;96.60
25214;DHT22;13160;51.834;4.706;2023-02-26T11:00:40;5.30;96.60
25214;DHT22;13160;51.834;4.706;2023-02-26T11:03:15;5.40;95.80
25214;DHT22;13160;51.834;4.706;2023-02-26T11:05:46;5.50;95.90
25214;DHT22;13160;51.834;4.706;2023-02-26T11:08:19;5.50;95.60
25214;DHT22;13160;51.834;4.706;2023-02-26T11:10:55;5.60;95.00
25214;DHT22;13160;51.834;4.706;2023-02-26T11:13:27;5.60;95.10
25214;DHT22;13160;51.834;4.706;2023-02-26T11:15:59;5.70;95.00
25214;DHT22;13160;51.834;4.706;2023-02-26T11:18:34;5.70;94.70
25214;DHT22;13160;51.834;4.706;2023-02-26T11:21:06;5.80;94.30
25214;DHT22;13160;51.834;4.706;2023-02-26T11:23:43;5.80;93.90
25214;DHT22;13160;51.834;4.706;2023-02-26T11:26:17;5.90;94.10
25214;DHT22;13160;51.834;4.706;2023-02-26T11:28:49;5.90;93.40
25214;DHT22;13160;51.834;4.706;2023-02-26T11:31:19;5.90;93.50
25214;DHT22;13160;51.834;4.706;2023-02-26T11:33:49;5.90;93.20
25214;DHT22;13160;51.834;4.706;2023-02-26T11:36:24;6.00;93.40
25214;DHT22;13160;51.834;4.706;2023-02-26T11:38:56;6.00;93.60
25214;DHT22;13160;51.834;4.706;2023-02-26T11:41:29;6.10;93.40
25214;DHT22;13160;51.834;4.706;2023-02-26T11:44:05;6.20;93.20
25214;DHT22;13160;51.834;4.706;2023-02-26T11:46:40;6.30;93.40
25214;DHT22;13160;51.834;4.706;2023-02-26T11:49:11;6.40;93.00
25214;DHT22;13160;51.834;4.706;2023-02-26T11:51:42;6.50;92.60
25214;DHT22;13160;51.834;4.706;2023-02-26T11:54:21;6.60;92.40
25214;DHT22;13160;51.834;4.706;2023-02-26T11:57:00;6.70;92.50
25214;DHT22;13160;51.834;4.706;2023-02-26T11:59:31;6.70;91.40
25214;DHT22;13160;51.834;4.706;2023-02-26T12:02:02;6.70;91.40
25214;DHT22;13160;51.834;4.706;2023-02-26T12:04:33;6.80;91.40
25214;DHT22;13160;51.834;4.706;2023-02-26T12:07:01;6.80;91.40
25214;DHT22;13160;51.834;4.706;2023-02-26T12:09:29;6.70;91.10
25214;DHT22;13160;51.834;4.706;2023-02-26T12:12:08;6.70;91.00
25214;DHT22;13160;51.834;4.706;2023-02-26T12:14:50;6.70;90.90
25214;DHT22;13160;51.834;4.706;2023-02-26T12:17:39;6.70;91.10
25214;DHT22;13160;51.834;4.706;2023-02-26T12:20:19;6.80;91.10
25214;DHT22;13160;51.834;4.706;2023-02-26T12:23:05;6.80;91.20
25214;DHT22;13160;51.834;4.706;2023-02-26T12:26:19;6.90;90.10
25214;DHT22;13160;51.834;4.706;2023-02-26T12:29:14;6.90;87.80
25214;DHT22;13160;51.834;4.706;2023-02-26T12:32:21;6.80;87.00
25214;DHT22;13160;51.834;4.706;2023-02-26T12:35:20;6.80;89.40
25214;DHT22;13160;51.834;4.706;2023-02-26T12:38:09;6.80;89.20
25214;DHT22;13160;51.834;4.706;2023-02-26T12:43:59;6.80;88.30
25214;DHT22;13160;51.834;4.706;2023-02-26T12:46:46;6.80;87.20
25214;DHT22;13160;51.834;4.706;2023-02-26T12:49:35;6.80;88.30
25214;DHT22;13160;51.834;4.706;2023-02-26T12:55:26;6.90;88.30
25214;DHT22;13160;51.834;4.706;2023-02-26T13:07:58;6.90;88.10
25214;DHT22;13160;51.834;4.706;2023-02-26T13:10:40;6.90;88.00
25214;DHT22;13160;51.834;4.706;2023-02-26T13:13:26;6.90;88.70
25214;DHT22;13160;51.834;4.706;2023-02-26T13:16:17;6.90;88.10
25214;DHT22;13160;51.834;4.706;2023-02-26T13:18:55;6.90;88.50
25214;DHT22;13160;51.834;4.706;2023-02-26T13:21:34;6.90;88.90
25214;DHT22;13160;51.834;4.706;2023-02-26T13:24:08;6.90;89.00
25214;DHT22;13160;51.834;4.706;2023-02-26T13:26:39;6.90;88.90
25214;DHT22;13160;51.834;4.706;2023-02-26T13:29:13;6.90;88.30
25214;DHT22;13160;51.834;4.706;2023-02-26T13:31:51;6.90;88.70
25214;DHT22;13160;51.834;4.706;2023-02-26T13:34:38;6.90;88.80
25214;DHT22;13160;51.834;4.706;2023-02-26T13:37:21;6.90;89.00
25214;DHT22;13160;51.834;4.706;2023-02-26T13:40:00;6.90;88.30
25214;DHT22;13160;51.834;4.706;2023-02-26T13:42:37;6.90;87.90
25214;DHT22;13160;51.834;4.706;2023-02-26T13:45:23;7.00;88.40
25214;DHT22;13160;51.834;4.706;2023-02-26T13:48:09;7.00;88.20
25214;DHT22;13160;51.834;4.706;2023-02-26T13:50:54;6.90;87.30
25214;DHT22;13160;51.834;4.706;2023-02-26T13:53:37;6.90;86.90
25214;DHT22;13160;51.834;4.706;2023-02-26T13:56:16;6.90;88.40
25214;DHT22;13160;51.834;4.706;2023-02-26T13:58:50;6.80;87.80
25214;DHT22;13160;51.834;4.706;2023-02-26T14:01:26;6.80;88.70
25214;DHT22;13160;51.834;4.706;2023-02-26T14:04:22;6.90;88.70
25214;DHT22;13160;51.834;4.706;2023-02-26T14:06:53;6.90;86.60
25214;DHT22;13160;51.834;4.706;2023-02-26T14:09:42;6.90;87.70
25214;DHT22;13160;51.834;4.706;2023-02-26T14:12:41;6.90;87.30
25214;DHT22;13160;51.834;4.706;2023-02-26T14:15:28;6.90;87.30
25214;DHT22;13160;51.834;4.706;2023-02-26T14:18:24;6.90;87.60
25214;DHT22;13160;51.834;4.706;2023-02-26T14:24:13;6.90;86.60
25214;DHT22;13160;51.834;4.706;2023-02-26T14:27:19;6.90;87.30
25214;DHT22;13160;51.834;4.706;2023-02-26T14:30:02;6.90;86.90
25214;DHT22;13160;51.834;4.706;2023-02-26T14:32:34;6.90;87.10
25214;DHT22;13160;51.834;4.706;2023-02-26T14:35:16;6.90;87.50
25214;DHT22;13160;51.834;4.706;2023-02-26T14:37:56;6.90;88.10
25214;DHT22;13160;51.834;4.706;2023-02-26T14:40:28;7.00;88.20
25214;DHT22;13160;51.834;4.706;2023-02-26T14:43:00;7.00;87.70
25214;DHT22;13160;51.834;4.706;2023-02-26T14:45:31;7.00;88.10
25214;DHT22;13160;51.834;4.706;2023-02-26T14:48:04;7.00;87.60
25214;DHT22;13160;51.834;4.706;2023-02-26T14:50:42;7.00;87.90
25214;DHT22;13160;51.834;4.706;2023-02-26T14:53:55;7.00;88.40
25214;DHT22;13160;51.834;4.706;2023-02-26T14:56:46;7.00;88.40
25214;DHT22;13160;51.834;4.706;2023-02-26T14:59:48;7.00;88.50
25214;DHT22;13160;51.834;4.706;2023-02-26T15:02:27;7.00;87.70
25214;DHT22;13160;51.834;4.706;2023-02-26T15:05:24;7.00;87.90
25214;DHT22;13160;51.834;4.706;2023-02-26T15:08:10;7.00;87.10
25214;DHT22;13160;51.834;4.706;2023-02-26T15:11:01;7.00;88.10
25214;DHT22;13160;51.834;4.706;2023-02-26T15:13:59;7.00;89.10
25214;DHT22;13160;51.834;4.706;2023-02-26T15:16:44;7.00;90.30
25214;DHT22;13160;51.834;4.706;2023-02-26T15:19:36;7.00;90.80
25214;DHT22;13160;51.834;4.706;2023-02-26T15:22:25;7.00;91.00
25214;DHT22;13160;51.834;4.706;2023-02-26T15:24:59;7.00;91.20
25214;DHT22;13160;51.834;4.706;2023-02-26T15:27:31;6.90;91.40
25214;DHT22;13160;51.834;4.706;2023-02-26T15:30:03;6.90;91.40
25214;DHT22;13160;51.834;4.706;2023-02-26T15:32:36;6.90;91.70
25214;DHT22;13160;51.834;4.706;2023-02-26T15:35:14;6.90;91.90
25214;DHT22;13160;51.834;4.706;2023-02-26T15:37:48;6.90;92.10
25214;DHT22;13160;51.834;4.706;2023-02-26T15:40:18;6.90;92.30
25214;DHT22;13160;51.834;4.706;2023-02-26T15:42:51;6.90;92.40
25214;DHT22;13160;51.834;4.706;2023-02-26T15:45:31;6.90;92.70
25214;DHT22;13160;51.834;4.706;2023-02-26T15:48:06;6.90;92.80
25214;DHT22;13160;51.834;4.706;2023-02-26T15:50:43;6.90;92.80
25214;DHT22;13160;51.834;4.706;2023-02-26T15:53:17;6.80;92.60
25214;DHT22;13160;51.834;4.706;2023-02-26T15:55:52;6.80;92.80
25214;DHT22;13160;51.834;4.706;2023-02-26T15:58:34;6.80;92.90
25214;DHT22;13160;51.834;4.706;2023-02-26T16:01:04;6.70;93.40
25214;DHT22;13160;51.834;4.706;2023-02-26T16:03:36;6.80;93.50
25214;DHT22;13160;51.834;4.706;2023-02-26T16:06:08;6.70;93.60
25214;DHT22;13160;51.834;4.706;2023-02-26T16:08:39;6.70;93.70
25214;DHT22;13160;51.834;4.706;2023-02-26T16:11:08;6.70;93.80
25214;DHT22;13160;51.834;4.706;2023-02-26T16:13:42;6.70;93.60
25214;DHT22;13160;51.834;4.706;2023-02-26T16:16:17;6.70;93.60
25214;DHT22;13160;51.834;4.706;2023-02-26T16:18:50;6.70;93.80
25214;DHT22;13160;51.834;4.706;2023-02-26T16:21:25;6.60;93.90
25214;DHT22;13160;51.834;4.706;2023-02-26T16:23:56;6.60;93.90
25214;DHT22;13160;51.834;4.706;2023-02-26T16:26:29;6.50;93.70
25214;DHT22;13160;51.834;4.706;2023-02-26T16:29:02;6.50;93.90
25214;DHT22;13160;51.834;4.706;2023-02-26T16:31:39;6.50;94.00
25214;DHT22;13160;51.834;4.706;2023-02-26T16:34:22;6.40;94.10
25214;DHT22;13160;51.834;4.706;2023-02-26T16:36:56;6.40;94.30
25214;DHT22;13160;51.834;4.706;2023-02-26T16:39:26;6.40;94.40
25214;DHT22;13160;51.834;4.706;2023-02-26T16:42:07;6.30;94.40
25214;DHT22;13160;51.834;4.706;2023-02-26T16:44:48;6.30;94.50
25214;DHT22;13160;51.834;4.706;2023-02-26T16:47:19;6.30;94.60
25214;DHT22;13160;51.834;4.706;2023-02-26T16:49:48;6.20;94.70
25214;DHT22;13160;51.834;4.706;2023-02-26T16:52:20;6.10;94.70
25214;DHT22;13160;51.834;4.706;2023-02-26T16:54:55;6.10;94.80
25214;DHT22;13160;51.834;4.706;2023-02-26T16:57:31;6.00;94.90
25214;DHT22;13160;51.834;4.706;2023-02-26T17:00:06;6.00;95.20